Time;durP1;ratioP1;P1;durP2;ratioP2;P2;SDS_P1;SDS_P2;PMS_P1;PMS_P2;Temp;Humidity;BMP_temperature;BMP_pressure;BME280_temperature;BME280_humidity;BME280_pressure;Samples;Min_cycle;Max_cycle;Signal;HPM_P1;HPM_P2
2023/06/21 00:01:31;;;;;;;15.35;6.70;;;;;;;22.62;63.62;96542.84;4980191;28;20055;-82
2023/06/21 00:03:59;;;;;;;9.68;6.05;;;;;;;22.58;63.66;96541.75;4981356;28;20031;-81
2023/06/21 00:06:29;;;;;;;14.40;6.43;;;;;;;22.56;63.90;96548.41;4977959;29;20066;-80
2023/06/21 00:08:57;;;;;;;15.77;7.00;;;;;;;22.51;63.99;96546.53;4979783;29;20047;-82
2023/06/21 00:11:25;;;;;;;14.70;7.18;;;;;;;22.46;64.52;96549.19;4972693;29;20047;-81
2023/06/21 00:13:54;;;;;;;13.32;5.95;;;;;;;22.47;66.28;96550.75;4972095;29;20066;-82
2023/06/21 00:16:23;;;;;;;10.13;6.10;;;;;;;22.51;65.53;96557.16;4971108;29;20051;-82
2023/06/21 00:18:50;;;;;;;14.68;7.28;;;;;;;22.50;64.85;96549.44;4972752;29;20047;-80
2023/06/21 00:21:18;;;;;;;12.00;6.28;;;;;;;22.46;64.88;96543.84;4971492;29;20071;-80
2023/06/21 00:23:47;;;;;;;12.10;6.40;;;;;;;22.43;65.11;96549.66;4972905;29;20059;-83
2023/06/21 00:26:15;;;;;;;12.13;6.60;;;;;;;22.38;65.51;96554.97;4977166;28;20066;-80
2023/06/21 00:28:43;;;;;;;13.60;6.60;;;;;;;22.32;65.39;96548.03;4979646;28;20043;-81
2023/06/21 00:31:11;;;;;;;13.63;6.47;;;;;;;22.28;65.69;96541.63;4979716;28;20051;-82
2023/06/21 00:33:39;;;;;;;12.00;6.68;;;;;;;22.24;65.90;96546.66;4973933;29;20055;-82
2023/06/21 00:36:06;;;;;;;10.95;7.38;;;;;;;22.20;66.08;96551.66;4960795;29;20078;-81
2023/06/21 00:38:35;;;;;;;11.85;6.57;;;;;;;22.18;66.98;96553.78;4959839;29;20314;-81
2023/06/21 00:41:05;;;;;;;13.57;6.80;;;;;;;22.27;70.16;96548.81;4957810;29;20117;-81
2023/06/21 00:43:33;;;;;;;12.57;6.80;;;;;;;22.33;68.38;96557.63;4947880;29;20475;-80
2023/06/21 00:46:01;;;;;;;9.55;5.90;;;;;;;22.38;68.64;96547.78;4956883;29;20058;-79
2023/06/21 00:48:29;;;;;;;16.00;7.47;;;;;;;22.44;66.64;96551.28;4956502;29;20078;-80
2023/06/21 00:50:57;;;;;;;12.15;6.90;;;;;;;22.40;66.36;96558.19;4956182;29;20051;-80
2023/06/21 00:53:27;;;;;;;12.02;6.78;;;;;;;22.37;68.26;96567.47;4955702;29;20047;-80
2023/06/21 00:55:55;;;;;;;12.00;6.13;;;;;;;22.38;66.69;96562.94;4952859;29;20055;-79
2023/06/21 00:58:25;;;;;;;13.43;6.97;;;;;;;22.33;66.61;96568.25;4955569;29;20074;-80
2023/06/21 01:00:52;;;;;;;12.63;6.38;;;;;;;22.27;66.50;96577.25;4953890;29;20142;-80
2023/06/21 01:03:21;;;;;;;9.88;6.18;;;;;;;22.19;66.91;96586.44;4953986;29;20055;-80
2023/06/21 01:06:00;;;;;;;9.27;6.63;;;;;;;22.14;67.01;96581.13;4954303;29;20047;-80
2023/06/21 01:08:36;;;;;;;10.02;6.70;;;;;;;22.05;67.36;96586.09;4954269;29;20256;-80
2023/06/21 01:11:14;;;;;;;12.13;7.13;;;;;;;21.97;67.72;96575.94;4954033;29;20130;-80
2023/06/21 01:13:59;;;;;;;12.88;7.10;;;;;;;21.89;67.95;96584.41;4954103;29;20510;-80
2023/06/21 01:16:35;;;;;;;12.10;6.18;;;;;;;21.81;68.32;96586.44;4955469;29;20228;-80
2023/06/21 01:19:05;;;;;;;11.38;7.22;;;;;;;21.76;68.32;96586.41;4955503;29;20524;-80
2023/06/21 01:21:33;;;;;;;12.27;7.38;;;;;;;21.71;68.64;96580.25;4955774;28;20051;-80
2023/06/21 01:24:16;;;;;;;11.85;6.40;;;;;;;21.70;69.03;96584.78;4955884;29;20051;-79
2023/06/21 01:27:03;;;;;;;11.50;7.82;;;;;;;21.75;71.55;96587.47;4955622;29;20130;-80
2023/06/21 01:29:33;;;;;;;11.55;6.43;;;;;;;21.84;71.75;96589.66;4955574;29;20054;-80
2023/06/21 01:32:03;;;;;;;11.80;8.02;;;;;;;21.81;69.26;96589.09;4955470;29;20523;-79
2023/06/21 01:34:32;;;;;;;10.90;7.03;;;;;;;21.80;69.72;96590.19;4955501;29;20082;-80
2023/06/21 01:37:00;;;;;;;8.57;6.57;;;;;;;21.86;71.54;96603.47;4955434;29;20047;-80
2023/06/21 01:39:28;;;;;;;14.00;8.07;;;;;;;21.86;69.62;96603.47;4954430;28;20051;-80
2023/06/21 01:41:58;;;;;;;9.75;7.50;;;;;;;21.88;70.31;96606.69;4955252;29;20051;-80
2023/06/21 01:44:27;;;;;;;10.90;6.32;;;;;;;21.95;70.88;96615.22;4957131;29;20046;-80
2023/06/21 01:46:58;;;;;;;10.77;6.70;;;;;;;22.00;72.01;96607.31;4955465;29;20054;-80
2023/06/21 01:49:27;;;;;;;11.55;6.80;;;;;;;22.04;69.81;96611.06;4955259;29;20075;-79
2023/06/21 01:51:55;;;;;;;10.88;7.00;;;;;;;22.01;68.69;96614.22;4955421;29;20066;-80
2023/06/21 01:54:25;;;;;;;12.02;7.72;;;;;;;21.94;68.25;96603.03;4955343;29;20079;-80
2023/06/21 01:56:59;;;;;;;10.90;7.45;;;;;;;21.85;68.71;96610.66;4954968;29;20474;-80
2023/06/21 01:59:28;;;;;;;10.82;6.90;;;;;;;;;;4955019;29;20508;-80
2023/06/21 02:01:59;;;;;;;12.20;8.23;;;;;;;21.62;69.00;96619.72;4955084;29;20062;-79
2023/06/21 02:04:29;;;;;;;15.07;7.40;;;;;;;21.52;69.05;96620.44;4954967;29;20518;-80
2023/06/21 02:06:58;;;;;;;15.00;7.70;;;;;;;21.44;69.43;96628.06;4954622;29;20499;-80
2023/06/21 02:09:26;;;;;;;12.00;8.15;;;;;;;21.35;69.67;96628.47;4954604;29;20139;-79
2023/06/21 02:11:54;;;;;;;11.75;8.15;;;;;;;21.31;69.79;96640.63;4954812;29;20098;-79
2023/06/21 02:14:22;;;;;;;13.98;8.57;;;;;;;21.27;69.91;96633.41;4954808;29;20051;-79
2023/06/21 02:16:50;;;;;;;15.20;9.27;;;;;;;21.25;69.92;96640.81;4954967;29;20047;-80
2023/06/21 02:19:19;;;;;;;13.18;8.63;;;;;;;21.20;69.87;96634.41;4954409;29;20471;-80
2023/06/21 02:21:47;;;;;;;15.45;8.27;;;;;;;21.16;69.87;96637.81;4954590;29;20047;-80
2023/06/21 02:24:15;;;;;;;9.63;7.72;;;;;;;21.10;69.93;96639.63;4954599;29;20093;-80
2023/06/21 02:26:42;;;;;;;12.57;7.53;;;;;;;21.06;69.87;96638.50;4954606;29;20142;-80
2023/06/21 02:29:10;;;;;;;13.00;8.35;;;;;;;21.03;69.92;96646.94;4954452;29;20098;-80
2023/06/21 02:31:38;;;;;;;10.45;7.93;;;;;;;20.98;69.79;96653.00;4954566;29;20056;-79
2023/06/21 02:34:05;;;;;;;12.10;7.70;;;;;;;20.94;69.88;96662.47;4954329;29;20075;-80
2023/06/21 02:36:37;;;;;;;12.52;8.77;;;;;;;20.92;70.54;96667.22;4954811;29;20059;-79
2023/06/21 02:39:04;;;;;;;16.98;8.48;;;;;;;20.91;70.33;96675.44;4954365;29;20111;-80
2023/06/21 02:41:32;;;;;;;9.38;7.40;;;;;;;20.93;71.17;96676.00;4954765;29;20059;-80
2023/06/21 02:43:59;;;;;;;12.85;7.97;;;;;;;21.01;71.06;96680.06;4954411;29;20122;-80
2023/06/21 02:46:27;;;;;;;13.70;8.02;;;;;;;21.04;70.89;96677.72;4955741;29;20055;-80
2023/06/21 02:48:55;;;;;;;15.13;7.70;;;;;;;21.04;70.45;96679.59;4954638;29;20475;-80
2023/06/21 02:51:25;;;;;;;13.30;8.07;;;;;;;21.01;70.56;96674.75;4957296;28;20094;-80
2023/06/21 02:53:54;;;;;;;11.80;8.10;;;;;;;20.95;70.46;96673.91;4958727;29;20051;-80
2023/06/21 02:56:21;;;;;;;12.35;8.23;;;;;;;20.87;70.65;96677.78;4957956;29;20051;-80
2023/06/21 02:58:49;;;;;;;12.82;8.15;;;;;;;20.83;70.69;96667.91;4958268;29;20102;-80
2023/06/21 03:01:17;;;;;;;11.77;9.40;;;;;;;20.77;70.69;96670.50;4958067;29;20071;-80
2023/06/21 03:03:45;;;;;;;13.57;8.63;;;;;;;20.72;70.87;96674.94;4958425;29;20058;-80
2023/06/21 03:06:12;;;;;;;13.07;8.90;;;;;;;20.66;71.13;96675.91;4957482;29;20054;-80
2023/06/21 03:08:40;;;;;;;12.23;8.25;;;;;;;20.62;71.27;96674.78;4958151;29;20051;-80
2023/06/21 03:11:11;;;;;;;12.35;7.78;;;;;;;20.62;71.97;96674.78;4957752;29;20051;-80
2023/06/21 03:13:38;;;;;;;14.57;8.38;;;;;;;20.65;71.57;96671.66;4958236;29;20054;-80
2023/06/21 03:16:07;;;;;;;13.88;8.70;;;;;;;20.66;71.20;96670.59;4957711;29;20051;-79
2023/06/21 03:18:35;;;;;;;12.40;8.60;;;;;;;20.65;71.16;96658.41;4958055;29;20055;-80
2023/06/21 03:21:02;;;;;;;19.17;9.07;;;;;;;20.62;70.75;96653.56;4958058;29;20055;-79
2023/06/21 03:23:30;;;;;;;13.05;7.85;;;;;;;20.57;70.96;96647.19;4957912;29;20559;-79
2023/06/21 03:25:58;;;;;;;10.85;8.63;;;;;;;20.55;71.18;96653.72;4957605;29;20051;-80
2023/06/21 03:28:27;;;;;;;8.13;7.20;;;;;;;20.57;72.69;96667.56;4957631;29;20051;-80
2023/06/21 03:30:57;;;;;;;10.50;8.35;;;;;;;20.63;72.91;96681.69;4958070;29;20086;-79
2023/06/21 03:33:24;;;;;;;10.68;8.52;;;;;;;20.68;71.97;96692.34;4957582;29;20073;-80
2023/06/21 03:35:52;;;;;;;11.65;7.82;;;;;;;20.78;73.50;96705.75;4957156;29;20055;-80
2023/06/21 03:38:20;;;;;;;13.02;8.48;;;;;;;20.86;71.59;96710.66;4957678;29;20051;-80
2023/06/21 03:40:48;;;;;;;12.30;9.20;;;;;;;20.89;71.22;96709.34;4957205;29;20052;-80
2023/06/21 03:43:16;;;;;;;11.45;7.88;;;;;;;20.89;71.11;96712.81;4957052;29;20090;-80
2023/06/21 03:45:45;;;;;;;11.02;8.15;;;;;;;20.84;70.79;96723.34;4957680;29;20074;-80
2023/06/21 03:48:12;;;;;;;9.68;8.65;;;;;;;20.78;71.07;96716.38;4959418;29;20062;-80
2023/06/21 03:50:40;;;;;;;10.63;8.07;;;;;;;20.73;71.16;96721.59;4957873;29;20078;-80
2023/06/21 03:53:08;;;;;;;10.68;7.57;;;;;;;20.69;70.93;96717.84;4957895;29;20055;-80
2023/06/21 03:55:36;;;;;;;13.52;7.82;;;;;;;20.64;71.24;96715.91;4957367;29;20055;-80
2023/06/21 03:58:04;;;;;;;11.00;7.82;;;;;;;20.61;71.36;96710.28;4957621;29;20130;-80
2023/06/21 04:00:32;;;;;;;11.38;8.13;;;;;;;20.55;71.35;96712.84;4957633;29;20079;-80
2023/06/21 04:03:01;;;;;;;14.25;9.25;;;;;;;20.50;72.02;96709.31;4956660;28;20047;-80
2023/06/21 04:05:28;;;;;;;11.15;7.55;;;;;;;20.53;73.27;96708.81;4957446;29;20055;-80
2023/06/21 04:07:58;;;;;;;8.95;7.20;;;;;;;20.63;73.70;96709.00;4977431;28;20051;-80
2023/06/21 04:10:26;;;;;;;9.18;8.02;;;;;;;20.75;73.13;96712.38;4981137;28;20054;-79
2023/06/21 04:12:54;;;;;;;11.05;8.00;;;;;;;20.83;72.79;96724.38;4978131;29;20081;-80
2023/06/21 04:15:22;;;;;;;12.73;8.43;;;;;;;20.90;71.77;96730.34;4976347;29;20069;-78
2023/06/21 04:17:50;;;;;;;10.63;7.15;;;;;;;21.05;72.67;96740.31;4978147;29;20059;-83
2023/06/21 04:20:21;;;;;;;11.95;7.82;;;;;;;21.15;70.73;96742.31;4980651;28;20045;-84
2023/06/21 04:22:57;;;;;;;9.18;7.10;;;;;;;21.23;70.80;96741.06;4974237;28;20055;-82
2023/06/21 04:25:37;;;;;;;16.60;8.20;;;;;;;21.31;69.80;96743.31;4958753;29;20055;-82
2023/06/21 04:28:24;;;;;;;11.43;8.20;;;;;;;21.34;70.56;96746.28;4960442;29;20142;-81
2023/06/21 04:31:02;;;;;;;9.38;7.88;;;;;;;21.47;71.31;96755.75;4971344;28;20110;-81
2023/06/21 04:33:35;;;;;;;15.15;8.25;;;;;;;21.62;71.15;96770.25;4967048;29;20058;-82
2023/06/21 04:36:07;;;;;;;12.93;7.35;;;;;;;21.71;70.28;96788.16;4965309;29;20128;-81
2023/06/21 04:38:43;;;;;;;12.20;7.53;;;;;;;21.81;69.82;96793.56;4962417;29;20057;-80
2023/06/21 04:41:12;;;;;;;10.43;7.78;;;;;;;21.89;68.54;96804.81;4971218;29;20184;-81
2023/06/21 04:43:41;;;;;;;11.52;8.05;;;;;;;21.93;69.31;96811.22;4978367;28;20055;-80
2023/06/21 04:46:09;;;;;;;10.60;7.10;;;;;;;21.98;68.96;96824.56;4962617;29;20110;-80
2023/06/21 04:48:46;;;;;;;11.38;7.43;;;;;;;22.00;68.13;96849.03;4959908;29;20051;-80
2023/06/21 04:51:18;;;;;;;11.63;7.45;;;;;;;22.02;68.41;96863.66;4964231;29;20043;-81
2023/06/21 04:53:50;;;;;;;15.65;8.30;;;;;;;22.05;67.25;96848.28;4960803;29;20059;-81
2023/06/21 04:56:17;;;;;;;13.60;8.50;;;;;;;22.02;67.09;96846.94;4992951;23;20035;-82
2023/06/21 04:58:50;;;;;;;17.52;8.00;;;;;;;21.97;67.25;96860.97;4980978;28;20031;-82
2023/06/21 05:05:04;;;;;;;12.52;8.45;;;;;;;21.90;67.79;96862.19;4993344;23;20037;-84
2023/06/21 05:07:54;;;;;;;;;;;;;;;21.90;68.25;96856.88;4939090;29;20139;-80
2023/06/21 05:10:26;;;;;;;8.98;6.68;;;;;;;21.93;67.32;96869.63;4944036;28;19927;-79
2023/06/21 05:12:54;;;;;;;11.27;8.02;;;;;;;21.95;67.58;96856.91;4925001;29;20127;-79
2023/06/21 05:15:22;;;;;;;9.55;7.93;;;;;;;21.91;67.45;96861.94;4927110;29;20120;-79
2023/06/21 05:17:49;;;;;;;14.38;8.18;;;;;;;21.88;67.79;96858.97;4937093;29;20052;-78
2023/06/21 05:20:19;;;;;;;16.02;9.13;;;;;;;21.87;67.98;96860.03;4933973;29;20058;-78
2023/06/21 05:22:47;;;;;;;15.35;7.90;;;;;;;21.88;67.92;96856.31;4935179;29;20068;-78
2023/06/21 05:25:14;;;;;;;12.10;7.95;;;;;;;21.89;68.28;96857.94;4921714;29;20633;-78
2023/06/21 05:27:43;;;;;;;10.85;7.50;;;;;;;21.95;68.38;96856.91;4916095;29;20052;-78
2023/06/21 05:30:11;;;;;;;13.27;8.27;;;;;;;21.96;67.92;96848.72;4915704;29;20099;-78
2023/06/21 05:32:39;;;;;;;12.75;8.23;;;;;;;21.96;67.36;96847.91;4915603;29;20056;-78
2023/06/21 05:35:07;;;;;;;16.92;9.20;;;;;;;21.93;67.16;96845.75;4916210;29;20052;-78
2023/06/21 05:37:35;;;;;;;11.10;9.07;;;;;;;21.91;67.49;96850.50;4917655;29;20080;-77
2023/06/21 05:40:04;;;;;;;13.32;9.30;;;;;;;21.91;67.89;96872.56;4917620;29;20044;-77
2023/06/21 05:42:31;;;;;;;12.95;9.05;;;;;;;21.95;68.08;96863.06;4917298;29;20076;-78
2023/06/21 05:45:00;;;;;;;15.63;9.75;;;;;;;21.99;67.44;96860.69;4917441;29;20473;-78
2023/06/21 05:47:28;;;;;;;16.00;9.52;;;;;;;22.02;67.53;96852.25;4917080;29;20059;-78
2023/06/21 05:49:56;;;;;;;13.25;8.82;;;;;;;22.07;67.71;96849.63;4917396;29;20405;-78
2023/06/21 05:52:23;;;;;;;14.10;9.90;;;;;;;22.10;67.92;96851.78;4917172;29;20076;-77
2023/06/21 05:54:51;;;;;;;13.88;10.25;;;;;;;22.14;67.50;96852.88;4917278;29;20082;-78
2023/06/21 05:57:19;;;;;;;18.23;9.93;;;;;;;22.17;67.34;96843.59;4917503;29;20048;-78
2023/06/21 05:59:46;;;;;;;12.43;8.80;;;;;;;22.19;67.92;96845.00;4917669;29;20056;-78
2023/06/21 06:02:15;;;;;;;14.82;8.70;;;;;;;22.30;68.13;96853.06;4916786;29;20139;-78
2023/06/21 06:04:43;;;;;;;29.73;17.20;;;;;;;22.37;66.65;96851.03;4916538;29;20520;-79
2023/06/21 06:07:12;;;;;;;19.50;11.25;;;;;;;22.44;66.01;96850.84;4916580;29;20059;-78
2023/06/21 06:09:40;;;;;;;15.18;10.93;;;;;;;22.46;66.11;96846.88;4917023;29;20056;-78
2023/06/21 06:12:08;;;;;;;23.45;9.77;;;;;;;22.47;65.55;96842.34;4916492;29;20135;-78
2023/06/21 06:14:37;;;;;;;16.67;9.15;;;;;;;22.50;64.93;96836.50;4916602;29;20052;-78
2023/06/21 06:17:04;;;;;;;16.98;8.93;;;;;;;22.51;64.23;96828.31;4916250;29;20520;-78
2023/06/21 06:19:33;;;;;;;11.45;8.55;;;;;;;22.53;63.65;96820.88;4916488;29;20052;-77
2023/06/21 06:22:02;;;;;;;9.85;7.82;;;;;;;22.57;63.94;96832.63;4916433;29;20095;-78
2023/06/21 06:24:29;;;;;;;10.75;7.85;;;;;;;22.65;64.16;96841.16;4916368;29;20052;-78
2023/06/21 06:26:57;;;;;;;11.18;7.50;;;;;;;22.74;63.52;96848.44;4915481;29;20081;-78
2023/06/21 06:29:25;;;;;;;10.50;7.55;;;;;;;22.80;63.20;96859.91;4916537;29;20059;-78
2023/06/21 06:31:52;;;;;;;10.85;7.70;;;;;;;22.86;62.25;96856.25;4916190;29;20048;-78
2023/06/21 06:34:20;;;;;;;10.50;7.65;;;;;;;22.91;62.24;96858.16;4916056;29;20141;-77
2023/06/21 06:36:49;;;;;;;12.93;7.35;;;;;;;22.92;61.69;96854.44;4915911;29;20509;-79
2023/06/21 06:39:37;;;;;;;13.15;8.02;;;;;;;22.96;61.48;96856.34;4916385;29;20055;-79
2023/06/21 06:42:06;;;;;;;8.90;7.05;;;;;;;23.01;61.56;96856.41;4916315;29;20052;-78
2023/06/21 06:44:34;;;;;;;12.23;7.05;;;;;;;23.09;61.59;96841.84;4916362;29;20079;-78
2023/06/21 06:47:01;;;;;;;11.82;7.20;;;;;;;23.16;61.43;96844.28;4915918;29;20056;-78
2023/06/21 06:49:29;;;;;;;11.65;7.80;;;;;;;23.21;61.50;96841.63;4916022;29;20056;-78
2023/06/21 06:51:58;;;;;;;9.43;7.28;;;;;;;23.26;60.54;96841.66;4915817;29;20084;-79
2023/06/21 06:54:25;;;;;;;8.93;6.47;;;;;;;23.34;60.26;96833.19;4915821;29;20453;-78
2023/06/21 06:56:53;;;;;;;11.05;7.05;;;;;;;23.43;59.88;96828.97;4915669;29;20063;-79
2023/06/21 06:59:20;;;;;;;7.82;7.03;;;;;;;23.49;59.68;96837.00;4915969;29;20092;-78
2023/06/21 07:01:48;;;;;;;7.63;6.07;;;;;;;23.53;59.47;96827.44;4915792;29;20076;-79
2023/06/21 07:04:16;;;;;;;11.93;7.10;;;;;;;23.56;59.48;96835.69;4915835;29;20052;-77
2023/06/21 07:06:44;;;;;;;9.90;6.50;;;;;;;23.58;59.00;96838.09;4915780;29;20056;-78
2023/06/21 07:09:13;;;;;;;8.07;5.93;;;;;;;23.61;58.74;96837.59;4915783;29;20504;-78
2023/06/21 07:11:40;;;;;;;7.20;6.50;;;;;;;23.67;60.00;96825.09;4916399;29;20048;-78
2023/06/21 07:14:08;;;;;;;8.38;6.40;;;;;;;23.78;59.76;96827.56;4915879;29;20083;-78
2023/06/21 07:16:36;;;;;;;10.50;6.60;;;;;;;23.87;58.25;96827.06;4916037;29;20112;-79
2023/06/21 07:19:03;;;;;;;9.93;6.22;;;;;;;23.92;57.91;96817.25;4915989;29;20052;-78
2023/06/21 07:21:31;;;;;;;9.25;5.15;;;;;;;24.00;57.10;96813.25;4916460;29;20088;-78
2023/06/21 07:23:59;;;;;;;10.40;5.47;;;;;;;24.05;57.02;96815.91;4915329;29;20049;-79
2023/06/21 07:26:28;;;;;;;8.40;5.45;;;;;;;24.09;56.53;96819.66;4915853;29;20056;-79
2023/06/21 07:28:55;;;;;;;8.18;5.43;;;;;;;24.15;56.81;96821.28;4915634;29;20056;-78
2023/06/21 07:31:23;;;;;;;7.82;5.28;;;;;;;24.23;56.47;96806.66;4915115;29;20056;-78
2023/06/21 07:33:54;;;;;;;5.93;5.22;;;;;;;24.33;55.72;96808.53;4915080;29;20053;-78
2023/06/21 07:36:21;;;;;;;5.53;4.13;;;;;;;24.44;56.32;96807.47;4915281;29;20080;-78
2023/06/21 07:38:49;;;;;;;6.25;3.90;;;;;;;24.56;54.66;96807.25;4917532;29;20088;-78
2023/06/21 07:41:20;;;;;;;9.25;3.55;;;;;;;24.67;52.90;96812.31;4918386;29;20504;-78
2023/06/21 07:43:48;;;;;;;4.00;2.97;;;;;;;24.78;51.98;96799.78;4918700;29;20477;-79
2023/06/21 07:46:16;;;;;;;6.65;3.22;;;;;;;24.90;53.24;96799.47;4918449;29;20052;-77
2023/06/21 07:48:45;;;;;;;3.90;2.92;;;;;;;25.00;51.32;96794.13;4918425;29;20070;-78
2023/06/21 07:51:12;;;;;;;4.05;2.70;;;;;;;25.09;50.75;96795.19;4918303;29;20059;-78
2023/06/21 07:53:40;;;;;;;5.45;2.65;;;;;;;25.21;50.67;96786.09;4918188;29;20047;-78
2023/06/21 07:56:08;;;;;;;4.93;3.42;;;;;;;25.33;50.18;96783.16;4917885;29;20103;-77
2023/06/21 07:58:36;;;;;;;5.78;3.75;;;;;;;25.46;49.85;96787.91;4918032;29;20055;-77
2023/06/21 08:01:05;;;;;;;7.60;3.50;;;;;;;25.58;49.32;96784.94;4917918;29;20056;-77
2023/06/21 08:03:32;;;;;;;7.00;3.33;;;;;;;25.68;48.86;96785.69;4917775;29;20674;-77
2023/06/21 08:06:00;;;;;;;4.47;2.92;;;;;;;25.80;48.08;96793.41;4917649;29;20059;-78
2023/06/21 08:08:28;;;;;;;3.58;2.80;;;;;;;25.91;47.71;96794.16;4917919;29;20135;-77
2023/06/21 08:10:56;;;;;;;4.32;2.85;;;;;;;26.00;47.42;96805.06;4917750;29;20416;-78
2023/06/21 08:13:24;;;;;;;5.13;3.08;;;;;;;26.07;47.35;96802.91;4917770;29;20143;-78
2023/06/21 08:15:51;;;;;;;5.25;2.85;;;;;;;26.10;47.57;96808.47;4917630;29;20489;-78
2023/06/21 08:18:20;;;;;;;4.20;2.85;;;;;;;26.13;47.20;96812.50;4917987;29;20111;-78
2023/06/21 08:20:48;;;;;;;3.17;2.80;;;;;;;26.22;47.38;96804.69;4918250;29;20048;-79
2023/06/21 08:23:16;;;;;;;8.38;3.30;;;;;;;26.32;47.73;96815.28;4917962;29;20055;-78
2023/06/21 08:25:46;;;;;;;5.28;2.70;;;;;;;26.42;46.07;96825.94;4917853;29;20068;-78
2023/06/21 08:28:14;;;;;;;5.63;3.00;;;;;;;26.43;46.34;96821.38;4917752;29;20060;-78
2023/06/21 08:30:41;;;;;;;5.05;2.85;;;;;;;26.47;46.47;96841.16;4917634;29;20162;-78
2023/06/21 08:33:09;;;;;;;4.78;3.88;;;;;;;26.50;45.67;96838.72;4917750;29;20131;-78
2023/06/21 08:35:42;;;;;;;7.50;3.75;;;;;;;26.58;45.61;96850.72;4917783;29;20115;-77
2023/06/21 08:38:09;;;;;;;4.47;3.22;;;;;;;26.68;45.96;96856.00;4917563;29;20130;-78
2023/06/21 08:40:59;;;;;;;5.25;3.03;;;;;;;26.83;45.81;96857.78;4917566;29;20529;-78
2023/06/21 08:43:28;;;;;;;4.97;3.15;;;;;;;27.02;45.29;96854.41;4917537;29;20048;-78
2023/06/21 08:45:56;;;;;;;4.75;3.30;;;;;;;27.22;44.98;96845.41;4921239;29;20048;-78
2023/06/21 08:48:23;;;;;;;6.35;4.28;;;;;;;27.40;45.05;96833.16;4923477;29;20085;-78
2023/06/21 08:50:52;;;;;;;7.10;3.22;;;;;;;27.56;45.16;96836.50;4923672;29;20111;-78
2023/06/21 08:53:26;;;;;;;5.30;3.38;;;;;;;27.66;44.55;96836.34;4917546;29;20048;-77
2023/06/21 08:55:55;;;;;;;4.60;3.40;;;;;;;27.74;44.76;96838.41;4917213;29;20084;-77
2023/06/21 08:58:26;;;;;;;5.38;3.30;;;;;;;27.79;43.98;96830.31;4917357;29;20126;-78
2023/06/21 09:00:58;;;;;;;5.25;3.50;;;;;;;27.79;43.65;96827.66;4916971;29;20084;-77
2023/06/21 09:03:31;;;;;;;5.15;3.10;;;;;;;27.73;44.07;96823.44;4916732;29;20055;-77
2023/06/21 09:06:04;;;;;;;5.28;3.25;;;;;;;27.66;43.52;96831.00;4916642;29;20111;-78
2023/06/21 09:08:33;;;;;;;6.72;3.40;;;;;;;27.59;43.39;96823.31;4916975;29;20123;-78
2023/06/21 09:11:01;;;;;;;6.38;3.88;;;;;;;27.52;43.85;96829.00;4916638;29;20048;-77
2023/06/21 09:13:34;;;;;;;4.15;2.78;;;;;;;27.47;45.01;96839.78;4916428;29;20080;-78
2023/06/21 09:16:03;;;;;;;;;;;;;;;27.44;45.20;96835.00;4917142;29;20052;-79
2023/06/21 09:18:35;;;;;;;7.47;3.58;;;;;;;27.38;44.47;96840.72;4916405;29;19923;-76
2023/06/21 09:21:08;;;;;;;5.07;3.10;;;;;;;27.28;44.13;96841.59;4916575;29;20051;-76
2023/06/21 09:23:36;;;;;;;3.55;3.05;;;;;;;27.17;44.68;96834.72;4916680;29;20059;-77
2023/06/21 09:26:04;;;;;;;7.10;3.60;;;;;;;27.06;44.59;96850.88;4915943;29;20052;-77
2023/06/21 09:28:32;;;;;;;5.25;3.63;;;;;;;26.98;44.65;96848.78;4916296;29;20095;-77
2023/06/21 09:30:59;;;;;;;5.57;3.20;;;;;;;26.92;45.28;96860.66;4916340;29;20087;-77
2023/06/21 09:33:28;;;;;;;4.55;3.20;;;;;;;26.87;45.58;96880.22;4917316;29;20347;-77
2023/06/21 09:35:56;;;;;;;11.88;3.85;;;;;;;26.84;46.21;96928.94;4916758;29;20048;-78
2023/06/21 09:38:28;;;;;;;8.27;2.17;;;;;;;26.73;46.64;96964.09;4926744;29;20059;-78
2023/06/21 09:40:56;;;;;;;10.82;3.10;;;;;;;26.32;53.65;96951.69;4923384;29;20062;-78
2023/06/21 09:43:23;;;;;;;8.80;2.63;;;;;;;25.85;56.35;96951.03;4917898;29;20048;-78
2023/06/21 09:46:03;;;;;;;5.68;2.85;;;;;;;25.53;58.97;96955.91;4916588;29;20048;-78
2023/06/21 09:48:35;;;;;;;5.72;2.10;;;;;;;25.21;58.55;96968.47;4917056;29;20059;-77
2023/06/21 09:51:04;;;;;;;6.30;2.33;;;;;;;24.90;56.97;96993.47;4916207;29;20123;-78
2023/06/21 09:53:33;;;;;;;7.28;2.10;;;;;;;24.61;59.07;97017.94;4916218;29;20147;-78
2023/06/21 09:56:01;;;;;;;5.88;2.30;;;;;;;24.41;60.14;97023.97;4915847;29;20060;-78
2023/06/21 09:58:29;;;;;;;7.88;2.92;;;;;;;24.26;60.54;97028.16;4916072;29;20056;-78
2023/06/21 10:00:57;;;;;;;6.22;2.25;;;;;;;24.14;60.08;97032.91;4915488;29;20076;-78
2023/06/21 10:03:28;;;;;;;5.90;2.85;;;;;;;23.98;61.30;96997.34;4915808;29;20056;-78
2023/06/21 10:05:57;;;;;;;4.53;1.77;;;;;;;23.73;60.18;96923.41;4916036;29;20052;-78
2023/06/21 10:08:26;;;;;;;6.78;2.20;;;;;;;23.42;60.99;96917.09;4916010;29;20143;-78
2023/06/21 10:10:55;;;;;;;3.55;1.65;;;;;;;23.17;61.98;96910.53;4916940;29;20048;-78
2023/06/21 10:13:27;;;;;;;6.07;2.80;;;;;;;23.03;66.34;96941.28;4917038;29;20469;-77
2023/06/21 10:15:55;;;;;;;4.32;2.40;;;;;;;22.97;66.32;96952.91;4916412;29;20086;-78
2023/06/21 10:18:23;;;;;;;3.80;2.38;;;;;;;22.87;65.48;96979.41;4916869;29;20048;-78
2023/06/21 10:20:54;;;;;;;5.43;2.40;;;;;;;22.76;65.78;96973.16;4916173;29;20067;-78
2023/06/21 10:23:24;;;;;;;6.93;2.65;;;;;;;22.72;69.15;96982.69;4916516;29;20091;-77
2023/06/21 10:25:54;;;;;;;8.10;3.03;;;;;;;22.62;66.83;96943.53;4916246;29;20060;-78
2023/06/21 10:28:27;;;;;;;6.57;2.60;;;;;;;22.47;67.23;96941.50;4916419;29;20084;-78
2023/06/21 10:30:57;;;;;;;5.43;2.88;;;;;;;22.35;67.27;96911.63;4931465;29;20067;-79
2023/06/21 10:33:26;;;;;;;10.05;2.80;;;;;;;22.25;67.66;96884.91;4932593;29;20063;-77
2023/06/21 10:35:55;;;;;;;5.55;2.65;;;;;;;22.09;67.28;96866.13;4917026;29;20056;-78
2023/06/21 10:38:32;;;;;;;5.57;2.58;;;;;;;21.95;68.47;96872.84;4916510;29;20052;-78
2023/06/21 10:41:00;;;;;;;23.45;3.95;;;;;;;21.83;68.99;96867.69;4915925;29;20056;-77
2023/06/21 10:43:30;;;;;;;9.57;3.83;;;;;;;21.77;72.55;96880.06;4916338;29;20048;-78
2023/06/21 10:45:58;;;;;;;9.75;4.38;;;;;;;21.85;74.61;96899.31;4915746;29;20044;-78
2023/06/21 10:48:26;;;;;;;7.20;3.90;;;;;;;21.94;74.46;96913.75;4916065;29;20413;-77
2023/06/21 10:50:55;;;;;;;6.40;3.63;;;;;;;21.94;71.97;96914.56;4915986;29;20108;-77
2023/06/21 10:53:24;;;;;;;7.97;4.68;;;;;;;21.99;76.13;96940.38;4916113;29;20528;-78
2023/06/21 10:55:52;;;;;;;6.28;3.13;;;;;;;22.04;73.52;96956.41;4915522;29;20518;-77
2023/06/21 10:58:20;;;;;;;9.95;4.50;;;;;;;22.07;75.09;96947.13;4915654;29;20059;-78
2023/06/21 11:00:51;;;;;;;8.60;3.35;;;;;;;22.02;73.56;96977.88;4915842;29;20483;-77
2023/06/21 11:03:25;;;;;;;8.30;3.75;;;;;;;21.99;73.65;96985.53;4915570;29;20059;-78
2023/06/21 11:05:54;;;;;;;8.35;4.00;;;;;;;22.00;77.53;96977.31;4915954;29;20074;-77
2023/06/21 11:08:31;;;;;;;6.18;4.20;;;;;;;22.07;75.23;96977.13;4915805;29;20063;-77
2023/06/21 11:10:59;;;;;;;10.18;4.75;;;;;;;21.98;72.64;96983.94;4916117;29;20052;-78
2023/06/21 11:13:37;;;;;;;10.88;4.18;;;;;;;21.87;72.66;96982.19;4919226;29;20139;-77
2023/06/21 11:16:11;;;;;;;6.88;4.30;;;;;;;21.82;73.75;97001.47;4918768;29;20075;-77
2023/06/21 11:18:39;;;;;;;6.30;4.18;;;;;;;21.85;77.60;97008.19;4919330;29;20072;-77
2023/06/21 11:21:07;;;;;;;6.15;2.90;;;;;;;21.84;74.92;97014.53;4919199;29;20080;-77
2023/06/21 11:23:49;;;;;;;9.57;3.97;;;;;;;21.87;79.83;97004.22;4919328;29;20052;-77
2023/06/21 11:26:18;;;;;;;5.35;3.70;;;;;;;21.85;74.30;97010.84;4918988;29;20052;-77
2023/06/21 11:28:48;;;;;;;7.00;3.28;;;;;;;21.79;71.47;97008.09;4918859;29;20090;-77
2023/06/21 11:31:23;;;;;;;8.70;4.22;;;;;;;21.72;71.29;97010.13;4919063;29;20079;-77
2023/06/21 11:33:53;;;;;;;10.40;3.63;;;;;;;21.69;72.52;97010.63;4918722;29;20059;-77
2023/06/21 11:36:26;;;;;;;8.57;3.50;;;;;;;21.81;78.06;97010.50;4918887;29;20059;-77
2023/06/21 11:39:00;;;;;;;10.20;4.05;;;;;;;21.83;73.21;97012.94;4918927;29;20513;-77
2023/06/21 11:41:40;;;;;;;11.75;3.40;;;;;;;21.84;72.92;97019.84;4918837;29;20056;-77
2023/06/21 11:44:08;;;;;;;6.40;3.78;;;;;;;21.88;71.27;97026.28;4918679;29;20081;-77